地図

経路データ

SID SEASON NUMBER BASIN SUBBASIN NAME ISO_TIME NATURE LAT LON WMO_WIND WMO_PRES WMO_AGENCY TRACK_TYPE DIST2LAND LANDFALL IFLAG USA_AGENCY USA_ATCF_ID USA_LAT USA_LON USA_RECORD USA_STATUS USA_WIND USA_PRES USA_SSHS USA_R34_NE USA_R34_SE USA_R34_SW USA_R34_NW USA_R50_NE USA_R50_SE USA_R50_SW USA_R50_NW USA_R64_NE USA_R64_SE USA_R64_SW USA_R64_NW USA_POCI USA_ROCI USA_RMW USA_EYE TOKYO_LAT TOKYO_LON TOKYO_GRADE TOKYO_WIND TOKYO_PRES TOKYO_R50_DIR TOKYO_R50_LONG TOKYO_R50_SHORT TOKYO_R30_DIR TOKYO_R30_LONG TOKYO_R30_SHORT TOKYO_LAND CMA_LAT CMA_LON CMA_CAT CMA_WIND CMA_PRES HKO_LAT HKO_LON HKO_CAT HKO_WIND HKO_PRES NEWDELHI_LAT NEWDELHI_LON NEWDELHI_GRADE NEWDELHI_WIND NEWDELHI_PRES NEWDELHI_CI NEWDELHI_DP NEWDELHI_POCI REUNION_LAT REUNION_LON REUNION_TYPE REUNION_WIND REUNION_PRES REUNION_TNUM REUNION_CI REUNION_RMW REUNION_R34_NE REUNION_R34_SE REUNION_R34_SW REUNION_R34_NW REUNION_R50_NE REUNION_R50_SE REUNION_R50_SW REUNION_R50_NW REUNION_R64_NE REUNION_R64_SE REUNION_R64_SW REUNION_R64_NW BOM_LAT BOM_LON BOM_TYPE BOM_WIND BOM_PRES BOM_TNUM BOM_CI BOM_RMW BOM_R34_NE BOM_R34_SE BOM_R34_SW BOM_R34_NW BOM_R50_NE BOM_R50_SE BOM_R50_SW BOM_R50_NW BOM_R64_NE BOM_R64_SE BOM_R64_SW BOM_R64_NW BOM_ROCI BOM_POCI BOM_EYE BOM_POS_METHOD BOM_PRES_METHOD NADI_LAT NADI_LON NADI_CAT NADI_WIND NADI_PRES WELLINGTON_LAT WELLINGTON_LON WELLINGTON_WIND WELLINGTON_PRES DS824_LAT DS824_LON DS824_STAGE DS824_WIND DS824_PRES TD9636_LAT TD9636_LON TD9636_STAGE TD9636_WIND TD9636_PRES TD9635_LAT TD9635_LON TD9635_WIND TD9635_PRES TD9635_ROCI NEUMANN_LAT NEUMANN_LON NEUMANN_CLASS NEUMANN_WIND NEUMANN_PRES MLC_LAT MLC_LON MLC_CLASS MLC_WIND MLC_PRES USA_GUST BOM_GUST BOM_GUST_PER REUNION_GUST REUNION_GUST_PER USA_SEAHGT USA_SEARAD_NE USA_SEARAD_SE USA_SEARAD_SW USA_SEARAD_NW STORM_SPEED STORM_DIR
1974174N19265 1974 49 NA GM NOT_NAMED 1974-06-22 12:00:00 TS 19.0000 -95.0000 20 hurdat_atl main 39 39 O_____________ hurdat_atl AL011974 19.0000 -95.0000 TD 20 -1 8 43
1974174N19265 1974 49 NA GM NOT_NAMED 1974-06-22 15:00:00 TS 19.3026 -94.7002 main 84 84 P_____________ AL011974 19.3026 -94.7002 TD 20 -1 8 43
1974174N19265 1974 49 NA GM NOT_NAMED 1974-06-22 18:00:00 TS 19.6000 -94.4000 20 hurdat_atl main 128 128 O_____________ hurdat_atl AL011974 19.6000 -94.4000 TD 20 -1 8 44
1974174N19265 1974 49 NA GM NOT_NAMED 1974-06-22 21:00:00 TS 19.8925 -94.0999 main 173 173 P_____________ AL011974 19.8925 -94.0999 TD 22 -1 8 43
1974174N19265 1974 49 NA GM NOT_NAMED 1974-06-23 00:00:00 TS 20.2000 -93.8000 25 hurdat_atl main 212 212 O_____________ hurdat_atl AL011974 20.2000 -93.8000 TD 25 -1 9 40
1974174N19265 1974 49 NA GM NOT_NAMED 1974-06-23 03:00:00 TS 20.5499 -93.5074 main 228 228 P_____________ AL011974 20.5499 -93.5074 TD 25 -1 9 39
1974174N19265 1974 49 NA GM NOT_NAMED 1974-06-23 06:00:00 TS 20.9000 -93.2000 25 hurdat_atl main 262 258 O_____________ hurdat_atl AL011974 20.9000 -93.2000 TD 25 -1 9 42
1974174N19265 1974 49 NA GM NOT_NAMED 1974-06-23 09:00:00 TS 21.2375 -92.8501 main 261 231 P_____________ AL011974 21.2375 -92.8501 TD 25 -1 9 47
1974174N19265 1974 49 NA GM NOT_NAMED 1974-06-23 12:00:00 TS 21.5000 -92.5000 25 hurdat_atl main 231 204 O_____________ hurdat_atl AL011974 21.5000 -92.5000 TD 25 -1 7 57
1974174N19265 1974 49 NA GM NOT_NAMED 1974-06-23 15:00:00 TS 21.6374 -92.1923 main 204 178 P_____________ AL011974 21.6374 -92.1923 TD 25 -1 6 70
1974174N19265 1974 49 NA GM NOT_NAMED 1974-06-23 18:00:00 TS 21.7000 -91.9000 25 hurdat_atl main 178 155 O_____________ hurdat_atl AL011974 21.7000 -91.9000 TD 25 -1 6 78
1974174N19265 1974 49 NA GM NOT_NAMED 1974-06-23 21:00:00 TS 21.7574 -91.6074 main 155 129 P_____________ AL011974 21.7574 -91.6074 TD 25 -1 6 80
1974174N19265 1974 49 NA GM NOT_NAMED 1974-06-24 00:00:00 TS 21.8000 -91.3000 25 hurdat_atl main 129 106 O_____________ hurdat_atl AL011974 21.8000 -91.3000 TD 25 -1 6 81
1974174N19265 1974 49 NA GM NOT_NAMED 1974-06-24 03:00:00 TS 21.8500 -90.9500 main 108 94 P_____________ AL011974 21.8500 -90.9500 TD 25 -1 7 81
1974174N19265 1974 49 NA GM NOT_NAMED 1974-06-24 06:00:00 TS 21.9000 -90.6000 25 hurdat_atl main 94 88 O_____________ hurdat_atl AL011974 21.9000 -90.6000 TD 25 -1 6 82
1974174N19265 1974 49 NA GM NOT_NAMED 1974-06-24 09:00:00 TS 21.9425 -90.2700 main 88 84 P_____________ AL011974 21.9425 -90.2700 TD 25 -1 6 80
1974174N19265 1974 49 NA GM NOT_NAMED 1974-06-24 12:00:00 TS 22.0000 -90.0000 25 hurdat_atl main 90 89 O_____________ hurdat_atl AL011974 22.0000 -90.0000 TD 25 -1 4 71
1974174N19265 1974 49 NA GM NOT_NAMED 1974-06-24 15:00:00 TS 22.0849 -89.8200 main 100 98 P_____________ AL011974 22.0849 -89.8200 TD 25 -1 3 54
1974174N19265 1974 49 NA GM NOT_NAMED 1974-06-24 18:00:00 TS 22.2000 -89.7000 25 hurdat_atl main 108 108 O_____________ hurdat_atl AL011974 22.2000 -89.7000 TD 25 -1 3 39
1974174N19265 1974 49 NA GM NOT_NAMED 1974-06-24 21:00:00 TS 22.3425 -89.5925 main 116 116 P_____________ AL011974 22.3425 -89.5925 TD 25 -1 4 31
1974174N19265 1974 49 NA GM NOT_NAMED 1974-06-25 00:00:00 TS 22.5000 -89.5000 25 hurdat_atl main 135 135 O_____________ hurdat_atl AL011974 22.5000 -89.5000 TD 25 -1 4 28
1974174N19265 1974 49 NA GM NOT_NAMED 1974-06-25 03:00:00 TS 22.6575 -89.4075 main 156 152 P_____________ AL011974 22.6575 -89.4075 TD 25 -1 4 31
1974174N19265 1974 49 NA GM NOT_NAMED 1974-06-25 06:00:00 TS 22.8000 -89.3000 25 hurdat_atl main 162 162 O_____________ hurdat_atl AL011974 22.8000 -89.3000 TD 25 -1 3 42
1974174N19265 1974 49 NA GM NOT_NAMED 1974-06-25 09:00:00 TS 22.9075 -89.1650 main 168 164 P_____________ AL011974 22.9075 -89.1650 TD 22 -1 3 54
1974174N19265 1974 49 NA GM NOT_NAMED 1974-06-25 12:00:00 TS 23.0000 -89.0000 20 hurdat_atl main 172 170 O_____________ hurdat_atl AL011974 23.0000 -89.0000 TD 20 -1 4 59
1974174N19265 1974 49 NA GM NOT_NAMED 1974-06-25 15:00:00 TS 23.1075 -88.8075 main 180 179 P_____________ AL011974 23.1075 -88.8075 TD 20 -1 4 61
1974174N19265 1974 49 NA GM NOT_NAMED 1974-06-25 18:00:00 TS 23.2000 -88.6000 20 hurdat_atl main 190 190 O_____________ hurdat_atl AL011974 23.2000 -88.6000 TD 20 -1 4 68
1974174N19265 1974 49 NA GM NOT_NAMED 1974-06-25 21:00:00 TS 23.2575 -88.3925 main 201 201 P_____________ AL011974 23.2575 -88.3925 TD 20 -1 4 75
1974174N19265 1974 49 NA GM NOT_NAMED 1974-06-26 00:00:00 TS 23.3000 -88.2000 20 hurdat_atl main 201 201 O_____________ hurdat_atl AL011974 23.3000 -88.2000 TD 20 -1 3 74
1974174N19265 1974 49 NA GM NOT_NAMED 1974-06-26 03:00:00 TS 23.3499 -88.0500 main 201 201 P_____________ AL011974 23.3499 -88.0500 TD 20 -1 3 70
1974174N19265 1974 49 NA GM NOT_NAMED 1974-06-26 06:00:00 TS 23.4000 -87.9000 20 hurdat_atl main 212 212 O_____________ hurdat_atl AL011974 23.4000 -87.9000 TD 20 -1 3 72
1974174N19265 1974 49 NA GM NOT_NAMED 1974-06-26 09:00:00 TS 23.4501 -87.7125 main 223 223 P_____________ AL011974 23.4501 -87.7125 TD 20 -1 4 75
1974174N19265 1974 49 NA GM NOT_NAMED 1974-06-26 12:00:00 TS 23.5000 -87.5000 20 hurdat_atl main 224 O_____________ hurdat_atl AL011974 23.5000 -87.5000 TD 20 -1 4 76

IBTrACS Databaseについて

本データベースは、米国NOAAが公開する1842年以降の世界の熱帯低気圧のベストトラックデータアーカイブInternational Best Track Archive for Climate Stewardship (IBTrACS)を、ウェブで閲覧しやすい形式に変換したものです。

最終更新日:2021-12-08